Time;durP1;ratioP1;P1;durP2;ratioP2;P2;SDS_P1;SDS_P2;PMS_P1;PMS_P2;Temp;Humidity;BMP_temperature;BMP_pressure;BME280_temperature;BME280_humidity;BME280_pressure;Samples;Min_cycle;Max_cycle;Signal;HPM_P1;HPM_P2
2023/09/03 00:00:16;;;;;;;15.30;8.20;;;16.30;99.90;;;;;;5016835;28;20538;-74
2023/09/03 00:02:44;;;;;;;14.93;8.33;;;16.20;99.90;;;;;;5021832;28;20455;-73
2023/09/03 00:05:12;;;;;;;14.40;7.60;;;16.30;99.90;;;;;;5029861;28;20482;-72
2023/09/03 00:07:42;;;;;;;12.70;7.37;;;16.40;99.90;;;;;;5034067;28;20481;-72
2023/09/03 00:10:10;;;;;;;15.03;7.47;;;16.50;99.90;;;;;;5036019;28;20473;-72
2023/09/03 00:12:38;;;;;;;12.67;7.33;;;16.30;99.90;;;;;;5028134;28;20507;-73
2023/09/03 00:15:07;;;;;;;13.10;7.37;;;16.30;99.90;;;;;;5018817;28;20469;-74
2023/09/03 00:17:35;;;;;;;13.73;7.70;;;16.30;99.90;;;;;;5008883;28;21000;-73
2023/09/03 00:20:03;;;;;;;14.80;8.37;;;16.20;99.90;;;;;;5008520;28;20947;-74
2023/09/03 00:22:32;;;;;;;15.00;8.40;;;16.10;99.90;;;;;;5008467;28;20464;-74
2023/09/03 00:25:01;;;;;;;12.97;7.33;;;16.10;99.90;;;;;;5008436;28;20453;-74
2023/09/03 00:27:29;;;;;;;15.00;7.27;;;16.00;99.90;;;;;;5008474;28;20886;-75
2023/09/03 00:29:57;;;;;;;15.20;7.80;;;16.10;99.90;;;;;;5008144;28;20542;-74
2023/09/03 00:32:25;;;;;;;15.37;8.10;;;16.00;99.90;;;;;;5015206;28;20452;-73
2023/09/03 00:34:53;;;;;;;13.40;7.97;;;16.00;99.90;;;;;;5036619;28;20452;-74
2023/09/03 00:37:21;;;;;;;14.33;8.20;;;16.00;99.90;;;;;;5033940;28;20472;-75
2023/09/03 00:39:49;;;;;;;13.97;8.00;;;16.00;99.90;;;;;;5042452;28;20472;-75
2023/09/03 00:42:18;;;;;;;16.27;8.63;;;16.00;99.90;;;;;;5056681;28;20474;-74
2023/09/03 00:44:46;;;;;;;12.63;7.20;;;16.00;99.90;;;;;;5056869;28;20444;-75
2023/09/03 00:47:15;;;;;;;15.90;8.93;;;15.90;99.90;;;;;;5057333;28;20464;-75
2023/09/03 00:49:44;;;;;;;13.13;8.00;;;16.00;99.90;;;;;;5053967;28;20439;-75
2023/09/03 00:52:12;;;;;;;13.17;7.67;;;16.00;99.90;;;;;;5034016;28;20899;-74
2023/09/03 00:54:41;;;;;;;13.90;9.03;;;15.90;99.90;;;;;;5036702;28;20441;-75
2023/09/03 00:57:09;;;;;;;16.10;7.73;;;15.90;99.90;;;;;;5036920;28;20519;-75
2023/09/03 00:59:40;;;;;;;15.17;8.10;;;15.80;99.90;;;;;;5037057;28;20451;-74
2023/09/03 01:02:11;;;;;;;13.30;8.10;;;15.90;99.90;;;;;;5037398;28;20447;-74
2023/09/03 01:04:40;;;;;;;13.30;8.30;;;15.90;99.90;;;;;;5037169;28;20444;-74
2023/09/03 01:07:10;;;;;;;15.97;7.93;;;15.90;99.90;;;;;;5036549;28;20464;-73
2023/09/03 01:09:40;;;;;;;15.63;7.60;;;15.90;99.90;;;;;;5036908;28;20881;-74
2023/09/03 01:12:13;;;;;;;14.27;7.87;;;15.90;99.90;;;;;;5037208;28;20440;-74
2023/09/03 01:14:57;;;;;;;14.07;7.50;;;15.90;99.90;;;;;;5036898;28;20498;-75
2023/09/03 01:17:32;;;;;;;12.83;7.80;;;15.90;99.90;;;;;;5036820;28;20466;-74
2023/09/03 01:20:10;;;;;;;14.97;7.83;;;15.90;99.90;;;;;;5037220;28;20531;-74
2023/09/03 01:23:00;;;;;;;14.33;8.17;;;15.90;99.90;;;;;;5036303;28;20868;-74
2023/09/03 01:25:42;;;;;;;13.77;7.80;;;15.90;99.90;;;;;;5030067;28;20563;-75
2023/09/03 01:28:21;;;;;;;16.43;9.80;;;15.90;99.90;;;;;;5036516;28;20982;-74
2023/09/03 01:30:52;;;;;;;12.20;7.20;;;15.90;99.90;;;;;;5036985;28;20541;-75
2023/09/03 01:33:20;;;;;;;14.27;7.57;;;15.90;99.90;;;;;;5036332;28;20510;-75
2023/09/03 01:35:50;;;;;;;15.20;7.20;;;15.90;99.90;;;;;;5036994;28;20502;-74
2023/09/03 01:38:18;;;;;;;13.43;6.47;;;15.90;99.90;;;;;;5036682;28;20475;-74
2023/09/03 01:40:48;;;;;;;12.43;6.57;;;15.90;99.90;;;;;;5037186;28;20469;-74
2023/09/03 01:43:17;;;;;;;13.37;6.57;;;15.80;99.90;;;;;;5036508;28;21239;-73
2023/09/03 01:45:53;;;;;;;13.40;6.27;;;15.80;99.90;;;;;;5037207;28;20445;-75
2023/09/03 01:48:28;;;;;;;12.00;6.27;;;15.80;99.90;;;;;;5029003;28;20444;-74
2023/09/03 01:51:10;;;;;;;10.73;5.50;;;15.80;99.90;;;;;;5036159;28;21196;-72
2023/09/03 01:53:44;;;;;;;11.03;6.07;;;15.90;99.90;;;;;;5033538;28;20446;-75
2023/09/03 01:56:14;;;;;;;14.60;6.87;;;15.90;99.90;;;;;;5033502;28;20448;-73
2023/09/03 01:58:48;;;;;;;12.00;6.30;;;15.80;99.90;;;;;;5033892;28;20557;-75
2023/09/03 02:01:16;;;;;;;11.93;6.43;;;15.80;99.90;;;;;;5032959;28;20547;-71
2023/09/03 02:03:48;;;;;;;14.83;6.40;;;15.80;99.90;;;;;;5032498;28;20984;-74
2023/09/03 02:06:16;;;;;;;13.10;6.13;;;15.70;99.90;;;;;;5033246;28;20445;-74
2023/09/03 02:08:44;;;;;;;15.27;7.07;;;15.60;99.90;;;;;;5033406;28;20482;-74
2023/09/03 02:11:12;;;;;;;10.93;6.00;;;15.60;99.90;;;;;;5033177;28;20488;-75
2023/09/03 02:13:40;;;;;;;12.10;6.77;;;15.60;99.90;;;;;;5033135;28;20445;-75
2023/09/03 02:16:09;;;;;;;12.50;5.90;;;15.50;99.90;;;;;;5033244;28;21029;-75
2023/09/03 02:18:37;;;;;;;11.80;6.57;;;15.50;99.90;;;;;;5032919;28;20538;-75
2023/09/03 02:21:05;;;;;;;11.53;6.60;;;15.50;99.90;;;;;;5033650;28;20487;-75
2023/09/03 02:23:33;;;;;;;12.77;7.10;;;15.50;99.90;;;;;;5032582;28;20449;-74
2023/09/03 02:26:02;;;;;;;13.07;7.00;;;15.50;99.90;;;;;;5033145;28;20462;-75
2023/09/03 02:28:31;;;;;;;12.33;6.27;;;15.50;99.90;;;;;;5032729;28;20890;-75
2023/09/03 02:30:58;;;;;;;11.90;6.90;;;15.40;99.90;;;;;;5033342;28;20563;-74
2023/09/03 02:33:28;;;;;;;12.47;6.20;;;15.40;99.90;;;;;;5032625;28;20511;-75
2023/09/03 02:35:56;;;;;;;11.33;5.63;;;15.40;99.90;;;;;;5033173;28;20451;-75
2023/09/03 02:38:24;;;;;;;11.47;6.03;;;15.40;99.90;;;;;;5032864;28;20591;-75
2023/09/03 02:40:52;;;;;;;10.47;5.20;;;15.40;99.90;;;;;;5032718;28;20446;-73
2023/09/03 02:43:20;;;;;;;16.07;6.17;;;15.50;99.90;;;;;;5032573;28;20924;-76
2023/09/03 02:45:47;;;;;;;13.30;6.37;;;15.50;99.90;;;;;;5032466;28;20539;-75
2023/09/03 02:48:15;;;;;;;11.83;6.47;;;15.50;99.90;;;;;;5032595;28;20469;-74
2023/09/03 02:50:45;;;;;;;12.80;6.67;;;15.40;99.90;;;;;;5032509;28;20447;-75
2023/09/03 02:53:12;;;;;;;13.10;6.80;;;15.30;99.90;;;;;;5032442;28;20488;-75
2023/09/03 02:55:40;;;;;;;13.50;6.30;;;15.30;99.90;;;;;;5032211;28;20449;-75
2023/09/03 02:58:08;;;;;;;13.67;7.63;;;15.30;99.90;;;;;;5032719;28;20469;-75
2023/09/03 03:00:36;;;;;;;13.77;7.40;;;15.40;99.90;;;;;;5032517;28;21209;-75
2023/09/03 03:03:05;;;;;;;11.87;6.97;;;15.30;99.90;;;;;;5031601;28;20832;-75
2023/09/03 03:05:33;;;;;;;12.37;6.97;;;15.30;99.90;;;;;;5026459;28;20816;-75
2023/09/03 03:08:02;;;;;;;12.77;5.93;;;15.20;99.90;;;;;;5031508;28;20857;-73
2023/09/03 03:10:30;;;;;;;11.33;6.50;;;15.20;99.90;;;;;;5032461;28;20510;-75
2023/09/03 03:12:58;;;;;;;11.97;6.47;;;15.20;99.90;;;;;;5031394;28;20546;-75
2023/09/03 03:15:26;;;;;;;18.40;7.70;;;15.10;99.90;;;;;;5032336;28;20459;-75
2023/09/03 03:17:54;;;;;;;12.30;6.10;;;15.00;99.90;;;;;;5031726;28;20559;-75
2023/09/03 03:20:23;;;;;;;11.80;6.53;;;15.10;99.90;;;;;;5032192;28;20452;-75
2023/09/03 03:22:50;;;;;;;12.73;6.30;;;15.10;99.90;;;;;;5031436;28;20854;-75
2023/09/03 03:25:20;;;;;;;14.37;6.47;;;15.20;99.90;;;;;;5032146;28;20834;-74
2023/09/03 03:27:48;;;;;;;11.43;6.10;;;15.10;99.90;;;;;;5032002;28;20472;-75
2023/09/03 03:30:16;;;;;;;13.47;6.33;;;15.10;99.90;;;;;;5031813;28;20440;-74
2023/09/03 03:32:44;;;;;;;13.17;6.50;;;15.20;99.90;;;;;;5031547;28;20484;-74
2023/09/03 03:35:12;;;;;;;13.10;6.00;;;15.10;99.90;;;;;;5031456;28;20449;-75
2023/09/03 03:37:40;;;;;;;11.70;6.13;;;15.00;99.90;;;;;;5031796;28;20492;-75
2023/09/03 03:40:09;;;;;;;12.67;6.83;;;15.00;99.90;;;;;;5031687;28;20905;-75
2023/09/03 03:42:38;;;;;;;11.50;6.37;;;15.00;99.90;;;;;;5031688;28;20528;-75
2023/09/03 03:45:06;;;;;;;14.10;6.53;;;15.00;99.90;;;;;;5031485;28;20819;-75
2023/09/03 03:47:34;;;;;;;10.57;5.10;;;14.90;99.90;;;;;;5031443;28;20476;-74
2023/09/03 03:50:03;;;;;;;11.90;5.67;;;15.00;99.90;;;;;;5031752;28;20445;-75
2023/09/03 03:52:31;;;;;;;11.43;5.73;;;15.00;99.90;;;;;;5031352;28;20558;-75
2023/09/03 03:54:58;;;;;;;12.53;5.90;;;15.00;99.90;;;;;;5031495;28;20939;-75
2023/09/03 03:57:26;;;;;;;17.00;6.20;;;15.00;99.90;;;;;;5031026;28;20531;-75
2023/09/03 03:59:56;;;;;;;12.83;6.53;;;15.00;99.90;;;;;;5031439;28;20448;-75
2023/09/03 04:02:24;;;;;;;12.13;7.10;;;15.00;99.90;;;;;;5030638;28;20459;-74
2023/09/03 04:04:53;;;;;;;13.30;7.00;;;14.90;99.90;;;;;;5031493;28;20507;-75
2023/09/03 04:07:22;;;;;;;12.83;6.13;;;15.00;99.90;;;;;;5030952;28;20983;-75
2023/09/03 04:09:50;;;;;;;12.40;6.40;;;15.00;99.90;;;;;;5031296;28;20523;-75
2023/09/03 04:12:18;;;;;;;16.60;6.20;;;14.90;99.90;;;;;;5031115;28;20534;-74
2023/09/03 04:14:46;;;;;;;14.60;6.30;;;14.90;99.90;;;;;;5029117;28;20533;-75
2023/09/03 04:17:15;;;;;;;13.50;6.60;;;14.90;99.90;;;;;;5030375;28;21040;-75
2023/09/03 04:19:46;;;;;;;11.40;6.47;;;14.80;99.90;;;;;;5030843;28;20440;-75
2023/09/03 04:22:14;;;;;;;12.60;6.70;;;14.80;99.90;;;;;;5031248;28;20479;-76
2023/09/03 04:24:42;;;;;;;12.67;7.10;;;14.80;99.90;;;;;;5026515;28;20500;-75
2023/09/03 04:27:10;;;;;;;13.17;6.77;;;14.80;99.90;;;;;;5031107;28;20464;-75
2023/09/03 04:29:38;;;;;;;14.00;6.50;;;14.80;99.90;;;;;;5025966;28;20523;-75
2023/09/03 04:32:07;;;;;;;8.80;4.80;;;14.90;99.90;;;;;;5031152;28;20476;-75
2023/09/03 04:34:36;;;;;;;10.13;4.90;;;15.00;99.90;;;;;;5030788;28;20462;-73
2023/09/03 04:37:04;;;;;;;10.07;5.10;;;15.00;99.90;;;;;;5030825;28;20885;-72
2023/09/03 04:39:32;;;;;;;10.60;4.97;;;14.90;99.90;;;;;;5030473;28;20459;-73
2023/09/03 04:42:00;;;;;;;9.53;4.67;;;15.00;99.90;;;;;;5030577;28;20432;-73
2023/09/03 04:44:28;;;;;;;10.73;5.13;;;15.00;99.90;;;;;;5030543;28;20437;-73
2023/09/03 04:46:56;;;;;;;11.30;6.20;;;15.00;99.90;;;;;;5030666;28;20451;-72
2023/09/03 04:49:24;;;;;;;12.90;5.33;;;15.00;99.90;;;;;;5030911;28;20477;-73
2023/09/03 04:51:53;;;;;;;11.07;5.20;;;14.90;99.90;;;;;;5030353;28;20448;-73
2023/09/03 04:54:21;;;;;;;10.90;5.70;;;15.00;99.90;;;;;;5030439;28;20455;-73
2023/09/03 04:56:49;;;;;;;11.17;6.00;;;15.00;99.90;;;;;;5030577;28;20459;-73
2023/09/03 04:59:16;;;;;;;12.20;6.53;;;15.00;99.90;;;;;;5031101;28;20473;-73
2023/09/03 05:01:44;;;;;;;10.90;5.77;;;15.00;99.90;;;;;;5030484;28;20486;-73
2023/09/03 05:04:12;;;;;;;12.20;5.60;;;15.10;99.90;;;;;;5030337;28;20441;-73
2023/09/03 05:06:40;;;;;;;12.70;5.60;;;15.10;99.90;;;;;;5030285;28;20447;-73
2023/09/03 05:09:10;;;;;;;11.97;5.20;;;15.20;99.90;;;;;;5030387;28;20464;-73
2023/09/03 05:11:39;;;;;;;11.30;5.07;;;15.30;99.90;;;;;;5030738;28;20839;-73
2023/09/03 05:14:07;;;;;;;10.33;5.40;;;15.20;99.90;;;;;;5030041;28;20542;-73
2023/09/03 05:16:35;;;;;;;11.10;4.90;;;15.20;99.90;;;;;;5030582;28;20928;-73
2023/09/03 05:19:06;;;;;;;11.17;5.30;;;15.20;99.90;;;;;;5030134;28;20461;-73
2023/09/03 05:21:34;;;;;;;13.00;5.20;;;15.20;99.90;;;;;;5030559;28;20498;-73
2023/09/03 05:24:02;;;;;;;10.73;4.93;;;15.30;99.90;;;;;;5030141;28;20514;-73
2023/09/03 05:26:32;;;;;;;12.53;6.43;;;15.30;99.90;;;;;;5031853;28;20448;-74
2023/09/03 05:29:00;;;;;;;11.13;5.17;;;15.30;99.90;;;;;;5034030;28;20518;-73
2023/09/03 05:31:30;;;;;;;10.33;4.63;;;15.50;99.90;;;;;;5034289;28;20467;-73
2023/09/03 05:33:59;;;;;;;13.20;4.93;;;15.70;99.90;;;;;;5033192;28;20852;-73
2023/09/03 05:36:28;;;;;;;14.33;5.30;;;15.80;99.90;;;;;;5034032;28;20457;-73
2023/09/03 05:38:56;;;;;;;9.80;4.70;;;15.80;99.90;;;;;;5034048;28;20468;-73
2023/09/03 05:41:24;;;;;;;9.70;4.20;;;15.80;99.90;;;;;;5033966;28;20449;-72
2023/09/03 05:43:54;;;;;;;11.50;4.20;;;15.90;99.90;;;;;;5033726;28;20445;-73
2023/09/03 05:46:22;;;;;;;11.53;4.57;;;16.00;99.90;;;;;;5033719;28;20540;-73
2023/09/03 05:48:50;;;;;;;9.93;4.37;;;16.10;99.90;;;;;;5033969;28;20465;-74
2023/09/03 05:51:18;;;;;;;13.87;4.67;;;16.10;99.90;;;;;;5033879;28;20463;-74
2023/09/03 05:53:46;;;;;;;9.00;4.17;;;16.10;99.90;;;;;;5033602;28;20483;-74
2023/09/03 05:56:14;;;;;;;9.67;3.83;;;16.20;99.90;;;;;;5033850;28;20445;-74
2023/09/03 05:58:42;;;;;;;10.27;4.67;;;16.20;99.90;;;;;;5033670;28;20468;-75
2023/09/03 06:01:12;;;;;;;9.00;3.77;;;16.30;99.90;;;;;;5033550;28;20488;-74
2023/09/03 06:03:41;;;;;;;11.30;5.13;;;16.40;99.90;;;;;;5033526;28;20440;-75
2023/09/03 06:06:10;;;;;;;10.43;4.17;;;16.60;99.90;;;;;;5033504;28;20444;-75
2023/09/03 06:08:38;;;;;;;10.93;4.53;;;16.60;99.90;;;;;;5033291;28;20473;-75
2023/09/03 06:11:06;;;;;;;10.80;5.17;;;16.70;99.90;;;;;;5033647;28;20449;-74
2023/09/03 06:13:34;;;;;;;9.60;4.17;;;16.80;99.90;;;;;;5032748;28;20530;-75
2023/09/03 06:16:02;;;;;;;11.77;4.90;;;17.00;99.90;;;;;;5033707;28;20503;-74
2023/09/03 06:18:32;;;;;;;11.20;4.60;;;17.20;99.90;;;;;;5033375;28;20507;-74
2023/09/03 06:21:00;;;;;;;11.67;4.40;;;17.20;99.90;;;;;;5033434;28;20448;-74
2023/09/03 06:23:28;;;;;;;9.80;4.10;;;17.30;99.90;;;;;;5032829;28;20444;-73
2023/09/03 06:25:56;;;;;;;12.43;5.33;;;17.40;99.90;;;;;;5033488;28;20520;-75
2023/09/03 06:28:26;;;;;;;11.00;5.00;;;17.70;99.90;;;;;;5032858;28;20465;-75
2023/09/03 06:30:56;;;;;;;9.90;4.60;;;17.80;99.90;;;;;;5030204;28;20837;-75
2023/09/03 06:33:25;;;;;;;15.97;5.13;;;17.80;99.90;;;;;;5025256;28;20827;-75
2023/09/03 06:35:54;;;;;;;9.50;4.23;;;18.00;99.90;;;;;;5032593;28;20437;-73
2023/09/03 06:38:22;;;;;;;9.70;3.93;;;18.10;99.90;;;;;;5031977;28;20468;-75
2023/09/03 06:40:50;;;;;;;10.40;4.37;;;18.20;99.90;;;;;;5033347;28;20517;-75
2023/09/03 06:43:18;;;;;;;9.43;4.90;;;18.30;99.90;;;;;;5032555;28;20437;-75
2023/09/03 06:45:47;;;;;;;11.00;4.80;;;18.40;99.90;;;;;;5032764;28;20468;-75
2023/09/03 06:48:15;;;;;;;10.40;4.50;;;18.50;99.90;;;;;;5033040;28;20469;-75
2023/09/03 06:50:43;;;;;;;10.33;4.50;;;18.60;99.90;;;;;;5032781;28;20445;-75
2023/09/03 06:53:12;;;;;;;10.30;4.93;;;18.90;99.90;;;;;;5032311;28;20480;-75
2023/09/03 06:55:43;;;;;;;11.43;5.00;;;18.90;99.90;;;;;;5032727;28;20441;-74
2023/09/03 06:58:11;;;;;;;10.03;5.07;;;19.00;99.90;;;;;;5032610;28;20467;-74
2023/09/03 07:00:39;;;;;;;10.83;5.27;;;18.90;99.90;;;;;;5032866;28;20449;-74
2023/09/03 07:03:07;;;;;;;9.53;4.40;;;18.80;99.90;;;;;;5031989;28;20456;-74
2023/09/03 07:05:35;;;;;;;10.30;4.67;;;18.80;99.90;;;;;;5032276;28;20819;-75
2023/09/03 07:08:03;;;;;;;9.97;4.70;;;18.90;99.90;;;;;;5032079;28;20484;-75
2023/09/03 07:10:33;;;;;;;9.80;4.20;;;19.00;99.90;;;;;;5032876;28;20437;-75
2023/09/03 07:13:01;;;;;;;11.17;4.73;;;19.20;99.90;;;;;;5031678;28;20445;-75
2023/09/03 07:15:29;;;;;;;9.33;4.03;;;19.40;99.90;;;;;;5032415;28;20445;-74
2023/09/03 07:17:57;;;;;;;10.50;4.83;;;19.60;99.90;;;;;;5031837;28;20496;-75
2023/09/03 07:20:25;;;;;;;9.40;4.47;;;19.80;99.90;;;;;;5032037;28;20439;-74
2023/09/03 07:22:53;;;;;;;9.77;4.53;;;19.80;99.90;;;;;;5031760;28;20449;-71
2023/09/03 07:25:21;;;;;;;11.37;4.57;;;19.90;99.90;;;;;;5032239;28;20441;-73
2023/09/03 07:27:50;;;;;;;9.57;3.97;;;20.00;99.90;;;;;;5028884;28;20461;-75
2023/09/03 07:30:18;;;;;;;10.30;4.40;;;20.20;99.90;;;;;;5017093;28;20480;-69
2023/09/03 07:32:46;;;;;;;10.30;4.90;;;20.30;99.90;;;;;;5012663;28;20453;-72
2023/09/03 07:35:15;;;;;;;12.20;4.60;;;20.50;99.90;;;;;;5018914;28;20489;-71
2023/09/03 07:37:43;;;;;;;11.13;5.57;;;20.60;99.90;;;;;;5010343;28;20516;-72
2023/09/03 07:40:11;;;;;;;11.77;5.43;;;20.70;99.90;;;;;;5010305;28;20449;-72
2023/09/03 07:42:39;;;;;;;11.57;5.27;;;20.70;99.90;;;;;;5010237;28;20449;-71
2023/09/03 07:45:10;;;;;;;10.37;4.30;;;20.70;99.90;;;;;;5010136;28;20469;-72
2023/09/03 07:47:38;;;;;;;10.17;4.40;;;20.80;99.90;;;;;;5010016;28;20523;-72
2023/09/03 07:50:07;;;;;;;9.90;4.80;;;21.00;99.90;;;;;;5009438;28;20441;-73
2023/09/03 07:52:35;;;;;;;8.93;4.10;;;21.20;99.90;;;;;;5009506;28;20936;-73
2023/09/03 07:55:03;;;;;;;11.40;4.50;;;21.30;99.90;;;;;;5009968;28;20850;-71
2023/09/03 07:57:32;;;;;;;10.60;4.93;;;21.40;99.90;;;;;;5018470;28;20510;-72
2023/09/03 08:00:00;;;;;;;10.27;5.00;;;21.60;99.90;;;;;;5018368;28;20864;-71
2023/09/03 08:02:30;;;;;;;12.30;5.50;;;21.50;99.90;;;;;;5019769;28;20951;-73
2023/09/03 08:04:58;;;;;;;11.23;4.87;;;21.10;99.90;;;;;;5017890;28;20438;-71
2023/09/03 08:07:26;;;;;;;10.53;5.13;;;21.00;99.90;;;;;;5010128;28;21086;-72
2023/09/03 08:09:55;;;;;;;9.40;5.30;;;21.10;99.90;;;;;;5009816;28;20464;-70
2023/09/03 08:12:23;;;;;;;13.70;4.97;;;21.30;99.90;;;;;;5009376;28;20449;-71
2023/09/03 08:14:51;;;;;;;11.10;6.50;;;21.50;99.90;;;;;;5009344;28;20987;-72
2023/09/03 08:17:20;;;;;;;11.00;4.70;;;21.60;99.90;;;;;;5009538;28;20469;-74
2023/09/03 08:19:50;;;;;;;9.60;4.47;;;21.80;99.90;;;;;;5009440;28;20449;-74
2023/09/03 08:22:18;;;;;;;9.87;4.93;;;21.90;99.90;;;;;;5009728;28;20799;-74
2023/09/03 08:24:46;;;;;;;11.33;5.27;;;22.00;99.90;;;;;;5009248;28;20470;-75
2023/09/03 08:27:14;;;;;;;10.63;5.10;;;22.00;99.90;;;;;;5009502;28;20645;-73
2023/09/03 08:29:42;;;;;;;11.57;5.30;;;21.90;99.90;;;;;;5009966;28;20450;-76
2023/09/03 08:32:11;;;;;;;10.20;4.90;;;21.90;99.90;;;;;;5009226;28;20437;-75
2023/09/03 08:34:39;;;;;;;12.27;5.47;;;22.00;99.90;;;;;;5010157;28;20844;-78
2023/09/03 08:37:08;;;;;;;10.13;5.00;;;22.20;99.90;;;;;;5009776;28;20544;-77
2023/09/03 08:39:39;;;;;;;13.27;5.57;;;22.40;99.90;;;;;;5012691;28;20984;-74
2023/09/03 08:42:07;;;;;;;11.87;5.23;;;22.60;99.90;;;;;;5010125;28;20438;-73
2023/09/03 08:44:43;;;;;;;11.30;6.10;;;22.70;99.90;;;;;;5018419;28;20503;-76
2023/09/03 08:47:13;;;;;;;10.40;4.90;;;22.40;99.90;;;;;;5011862;28;20840;-75
2023/09/03 08:49:41;;;;;;;11.27;5.70;;;22.50;99.90;;;;;;5009345;28;20929;-75
2023/09/03 08:52:11;;;;;;;10.33;5.13;;;22.60;99.90;;;;;;5022067;28;20456;-76
2023/09/03 08:54:39;;;;;;;13.07;5.90;;;22.60;99.90;;;;;;5028027;28;20472;-75
2023/09/03 08:57:09;;;;;;;11.80;5.07;;;22.50;99.90;;;;;;5029078;28;20461;-76
2023/09/03 08:59:37;;;;;;;11.50;5.10;;;22.40;99.90;;;;;;5028951;28;20508;-76
2023/09/03 09:02:12;;;;;;;10.77;5.20;;;22.50;99.90;;;;;;5031371;28;20441;-74
2023/09/03 09:04:41;;;;;;;9.83;5.20;;;22.60;99.90;;;;;;5032601;28;20444;-76
2023/09/03 09:07:11;;;;;;;10.30;4.70;;;22.70;99.90;;;;;;5031415;28;20523;-74
2023/09/03 09:09:40;;;;;;;12.07;5.33;;;23.00;99.90;;;;;;5033021;28;20483;-76
2023/09/03 09:12:17;;;;;;;10.70;5.47;;;23.50;99.90;;;;;;5032599;28;20461;-76
2023/09/03 09:14:53;;;;;;;9.60;4.70;;;23.50;99.90;;;;;;5032786;28;20468;-74
2023/09/03 09:17:21;;;;;;;10.03;4.90;;;23.50;99.90;;;;;;5024513;28;20541;-74
2023/09/03 09:19:49;;;;;;;11.00;5.10;;;23.60;99.90;;;;;;5033069;28;20436;-74
2023/09/03 09:22:18;;;;;;;10.30;4.50;;;23.60;99.90;;;;;;5032721;28;20445;-73
2023/09/03 09:24:48;;;;;;;9.27;4.63;;;24.00;99.90;;;;;;5032945;28;20437;-73
2023/09/03 09:27:17;;;;;;;9.50;4.47;;;24.50;99.90;;;;;;5032737;28;20461;-74
2023/09/03 09:29:46;;;;;;;10.60;5.30;;;24.60;99.90;;;;;;5032758;28;20440;-74
2023/09/03 09:32:19;;;;;;;12.37;5.53;;;24.80;99.90;;;;;;5032728;28;20436;-74
2023/09/03 09:34:47;;;;;;;11.70;5.03;;;24.50;99.90;;;;;;5032202;28;20488;-75
2023/09/03 09:37:16;;;;;;;11.50;5.77;;;24.80;99.90;;;;;;5032709;28;20551;-74
2023/09/03 09:39:46;;;;;;;9.70;4.17;;;25.20;99.90;;;;;;5032368;28;20440;-74
2023/09/03 09:42:18;;;;;;;8.40;3.63;;;25.30;99.90;;;;;;5032596;28;20499;-74
2023/09/03 09:45:00;;;;;;;8.20;3.40;;;25.80;99.90;;;;;;5031681;28;20444;-74
2023/09/03 09:47:27;;;;;;;9.80;3.17;;;26.10;99.90;;;;;;5032118;28;20507;-74
2023/09/03 09:49:56;;;;;;;8.80;3.47;;;26.20;99.90;;;;;;5032231;28;20451;-74
2023/09/03 09:52:35;;;;;;;9.80;3.93;;;26.40;99.90;;;;;;5031804;28;20880;-74
2023/09/03 09:55:05;;;;;;;9.03;4.17;;;26.70;99.90;;;;;;5031954;28;20553;-74
2023/09/03 09:57:33;;;;;;;8.60;3.67;;;27.00;99.90;;;;;;5032075;28;20540;-75
2023/09/03 10:00:01;;;;;;;7.70;3.00;;;27.20;99.90;;;;;;5032180;28;20488;-75
2023/09/03 10:02:29;;;;;;;8.80;2.97;;;26.90;99.90;;;;;;5030048;28;21022;-75
2023/09/03 10:04:57;;;;;;;8.90;3.97;;;26.90;99.90;;;;;;5030443;28;20440;-75
2023/09/03 10:07:26;;;;;;;8.33;3.20;;;27.30;99.90;;;;;;5011466;28;20987;-75
2023/09/03 10:09:54;;;;;;;10.20;3.73;;;27.20;99.90;;;;;;5012274;28;20457;-74
2023/09/03 10:12:24;;;;;;;8.60;4.53;;;27.10;99.90;;;;;;5011691;28;20477;-74
2023/09/03 10:14:52;;;;;;;8.30;3.23;;;27.20;99.90;;;;;;5012623;28;20477;-75
2023/09/03 10:17:20;;;;;;;8.20;2.80;;;27.20;99.90;;;;;;5013622;28;20544;-74
2023/09/03 10:19:56;;;;;;;7.60;2.60;;;27.30;99.90;;;;;;5017192;28;20488;-74
2023/09/03 10:22:24;;;;;;;7.67;2.70;;;27.50;99.90;;;;;;5024604;28;20476;-73
2023/09/03 10:24:59;;;;;;;8.90;2.53;;;27.50;99.90;;;;;;5031305;28;20948;-74
2023/09/03 10:27:32;;;;;;;7.30;2.30;;;27.80;99.90;;;;;;5029351;28;20800;-74
2023/09/03 10:30:04;;;;;;;7.50;2.40;;;28.40;99.90;;;;;;5030817;28;20495;-74
2023/09/03 10:32:33;;;;;;;7.53;2.40;;;28.60;99.90;;;;;;5031039;28;20437;-75
2023/09/03 10:35:08;;;;;;;8.23;2.10;;;28.60;99.90;;;;;;5031086;28;20480;-73
2023/09/03 10:37:37;;;;;;;7.30;2.10;;;28.30;99.90;;;;;;5029953;28;20461;-75
2023/09/03 10:40:18;;;;;;;6.23;0.80;;;28.40;99.90;;;;;;5031466;28;20901;-75
2023/09/03 10:42:48;;;;;;;7.27;1.23;;;28.50;96.00;;;;;;5030750;28;20826;-76
2023/09/03 10:45:16;;;;;;;7.40;1.90;;;28.50;95.40;;;;;;5031805;28;20445;-74
2023/09/03 10:48:08;;;;;;;7.37;1.67;;;28.40;95.50;;;;;;5029450;28;20465;-75
2023/09/03 10:50:43;;;;;;;6.87;1.50;;;28.30;99.00;;;;;;5009093;28;20449;-75
2023/09/03 10:53:37;;;;;;;7.13;1.97;;;28.80;99.90;;;;;;5029853;28;20436;-76
2023/09/03 10:56:10;;;;;;;6.90;1.90;;;29.30;96.10;;;;;;5034423;28;20477;-75
2023/09/03 10:58:55;;;;;;;7.03;1.97;;;29.50;94.80;;;;;;5029672;28;20472;-75
2023/09/03 11:01:26;;;;;;;6.90;1.80;;;28.90;93.80;;;;;;5025593;28;20985;-76
2023/09/03 11:03:55;;;;;;;7.00;1.87;;;28.80;94.40;;;;;;5030808;28;20494;-74
2023/09/03 11:06:24;;;;;;;7.10;1.90;;;29.30;94.80;;;;;;5030339;28;20433;-74
2023/09/03 11:09:22;;;;;;;6.80;1.73;;;29.80;93.10;;;;;;5033793;28;20974;-75
2023/09/03 11:11:50;;;;;;;6.60;1.47;;;29.50;92.30;;;;;;5026300;28;20503;-77
2023/09/03 11:14:20;;;;;;;7.00;1.57;;;28.80;92.20;;;;;;5029837;28;20483;-74
2023/09/03 11:16:47;;;;;;;9.33;2.70;;;28.70;92.30;;;;;;5026747;28;20584;-75
2023/09/03 11:19:15;;;;;;;7.23;2.00;;;28.70;93.00;;;;;;5029379;28;21241;-75
2023/09/03 11:21:43;;;;;;;8.57;2.03;;;29.10;91.80;;;;;;5021416;28;20530;-74
2023/09/03 11:24:15;;;;;;;6.70;1.70;;;29.20;90.50;;;;;;5022379;28;20449;-75
2023/09/03 11:26:44;;;;;;;6.67;1.60;;;29.40;90.30;;;;;;5023611;28;20435;-74
2023/09/03 11:29:21;;;;;;;6.73;1.67;;;29.60;91.10;;;;;;5024344;28;20974;-74
2023/09/03 11:31:50;;;;;;;7.53;1.90;;;29.60;89.30;;;;;;5028886;28;21129;-75
2023/09/03 11:34:18;;;;;;;8.10;2.20;;;29.20;90.30;;;;;;5019121;28;20941;-74
2023/09/03 11:36:50;;;;;;;7.43;2.00;;;28.50;90.80;;;;;;5019779;28;20483;-75
2023/09/03 11:39:18;;;;;;;7.67;2.53;;;28.00;92.30;;;;;;5018407;28;20539;-75
2023/09/03 11:41:47;;;;;;;8.20;2.63;;;27.60;93.70;;;;;;5025868;28;20872;-75
2023/09/03 11:44:15;;;;;;;91.37;54.30;;;27.50;94.50;;;;;;5029984;28;21129;-74
2023/09/03 11:46:58;;;;;;;8.60;3.30;;;27.70;94.70;;;;;;5037156;28;20867;-73
2023/09/03 11:49:26;;;;;;;15.70;7.50;;;27.90;93.00;;;;;;5027109;28;20524;-75
2023/09/03 11:51:54;;;;;;;7.80;1.80;;;28.20;92.50;;;;;;5025236;28;20437;-76
2023/09/03 11:54:25;;;;;;;7.20;2.20;;;28.20;93.20;;;;;;5026252;28;20481;-75
2023/09/03 11:56:59;;;;;;;8.40;2.87;;;28.60;92.30;;;;;;5040974;28;20480;-75
2023/09/03 11:59:27;;;;;;;7.83;2.30;;;29.20;92.80;;;;;;5038941;28;20444;-74
2023/09/03 12:01:56;;;;;;;7.10;1.93;;;29.70;90.10;;;;;;5035135;28;20436;-76
2023/09/03 12:04:24;;;;;;;7.70;1.97;;;29.50;90.00;;;;;;5033335;28;20949;-75
2023/09/03 12:06:52;;;;;;;7.80;2.00;;;29.10;90.60;;;;;;5033244;28;20495;-74
2023/09/03 12:09:22;;;;;;;7.20;2.00;;;29.40;90.50;;;;;;5036419;28;20447;-75
2023/09/03 12:11:50;;;;;;;8.07;1.90;;;29.90;91.90;;;;;;5037383;28;20478;-75
2023/09/03 12:14:28;;;;;;;7.83;1.80;;;30.10;88.30;;;;;;5048419;28;20436;-76
2023/09/03 12:16:58;;;;;;;6.73;1.60;;;29.70;86.90;;;;;;5045480;28;20500;-73
2023/09/03 12:19:38;;;;;;;7.20;1.70;;;29.60;88.70;;;;;;5029566;28;20437;-73
2023/09/03 12:22:06;;;;;;;8.13;2.40;;;29.60;86.00;;;;;;5029583;28;20802;-74
2023/09/03 12:24:35;;;;;;;7.03;1.50;;;30.10;86.00;;;;;;5019109;28;20437;-73
2023/09/03 12:27:04;;;;;;;6.40;1.30;;;30.40;85.00;;;;;;5008857;28;20545;-70
2023/09/03 12:29:35;;;;;;;8.40;1.70;;;30.20;80.80;;;;;;5027522;28;20869;-74
2023/09/03 12:32:33;;;;;;;6.43;1.37;;;29.80;81.70;;;;;;5029347;28;20620;-73
2023/09/03 12:35:01;;;;;;;12.73;4.83;;;29.80;79.60;;;;;;5029435;28;20451;-74
2023/09/03 12:37:40;;;;;;;6.90;1.87;;;29.70;83.10;;;;;;5028467;28;20484;-73
2023/09/03 12:40:10;;;;;;;8.80;3.53;;;29.50;83.70;;;;;;5029467;28;20447;-73
2023/09/03 12:42:38;;;;;;;12.33;3.63;;;29.60;85.80;;;;;;5028831;28;20855;-73
2023/09/03 12:45:08;;;;;;;6.60;1.00;;;30.70;86.50;;;;;;5029290;28;20440;-73
2023/09/03 12:47:37;;;;;;;7.53;1.60;;;31.30;72.00;;;;;;5028894;28;20830;-74
2023/09/03 12:50:05;;;;;;;7.00;1.30;;;31.00;72.40;;;;;;5029268;28;20444;-74
2023/09/03 12:52:33;;;;;;;6.80;1.60;;;31.10;72.00;;;;;;5024577;28;20541;-74